sensor_id;sensor_type;location;lat;lon;timestamp;pressure;altitude;pressure_sealevel;temperature;humidity
27334;BME280;14817;57.104;-2.094;2024-03-29T00:00:46;96607.91;;;5.49;100.00
27334;BME280;14817;57.104;-2.094;2024-03-29T00:03:12;96600.56;;;5.51;100.00
27334;BME280;14817;57.104;-2.094;2024-03-29T00:05:38;96609.59;;;5.44;100.00
27334;BME280;14817;57.104;-2.094;2024-03-29T00:08:04;96603.88;;;5.47;100.00
27334;BME280;14817;57.104;-2.094;2024-03-29T00:10:31;96606.06;;;5.50;100.00
27334;BME280;14817;57.104;-2.094;2024-03-29T00:12:57;96600.75;;;5.50;100.00
27334;BME280;14817;57.104;-2.094;2024-03-29T00:15:22;96604.59;;;5.54;100.00
27334;BME280;14817;57.104;-2.094;2024-03-29T00:17:48;96603.81;;;5.53;100.00
27334;BME280;14817;57.104;-2.094;2024-03-29T00:20:14;96598.50;;;5.53;100.00
27334;BME280;14817;57.104;-2.094;2024-03-29T00:22:41;96598.09;;;5.50;100.00
27334;BME280;14817;57.104;-2.094;2024-03-29T00:25:07;96585.81;;;5.56;100.00
27334;BME280;14817;57.104;-2.094;2024-03-29T00:27:33;96587.75;;;5.67;100.00
27334;BME280;14817;57.104;-2.094;2024-03-29T00:29:59;96582.31;;;5.62;100.00
27334;BME280;14817;57.104;-2.094;2024-03-29T00:32:25;96577.59;;;5.64;100.00
27334;BME280;14817;57.104;-2.094;2024-03-29T00:34:52;96581.03;;;5.64;100.00
27334;BME280;14817;57.104;-2.094;2024-03-29T00:37:20;96568.31;;;5.73;100.00
27334;BME280;14817;57.104;-2.094;2024-03-29T00:39:46;96563.66;;;5.68;100.00
27334;BME280;14817;57.104;-2.094;2024-03-29T00:42:11;96565.25;;;5.69;100.00
27334;BME280;14817;57.104;-2.094;2024-03-29T00:44:43;96559.53;;;5.72;100.00
27334;BME280;14817;57.104;-2.094;2024-03-29T00:47:09;96566.38;;;5.80;100.00
27334;BME280;14817;57.104;-2.094;2024-03-29T00:49:35;96562.72;;;5.81;100.00
27334;BME280;14817;57.104;-2.094;2024-03-29T00:52:02;96559.00;;;5.82;100.00
27334;BME280;14817;57.104;-2.094;2024-03-29T00:54:29;96554.09;;;5.86;100.00
27334;BME280;14817;57.104;-2.094;2024-03-29T00:56:55;96542.66;;;5.85;100.00
27334;BME280;14817;57.104;-2.094;2024-03-29T00:59:20;96541.53;;;6.00;100.00
27334;BME280;14817;57.104;-2.094;2024-03-29T01:01:47;96544.19;;;6.00;100.00
27334;BME280;14817;57.104;-2.094;2024-03-29T01:04:13;96549.09;;;5.96;100.00
27334;BME280;14817;57.104;-2.094;2024-03-29T01:06:39;96543.34;;;5.99;100.00
27334;BME280;14817;57.104;-2.094;2024-03-29T01:09:06;96546.25;;;5.98;100.00
27334;BME280;14817;57.104;-2.094;2024-03-29T01:11:32;96538.88;;;5.93;100.00
27334;BME280;14817;57.104;-2.094;2024-03-29T01:13:58;96541.13;;;5.96;100.00
27334;BME280;14817;57.104;-2.094;2024-03-29T01:16:24;96535.63;;;5.98;100.00
27334;BME280;14817;57.104;-2.094;2024-03-29T01:18:50;96530.72;;;5.95;100.00
27334;BME280;14817;57.104;-2.094;2024-03-29T01:21:18;96529.03;;;6.00;100.00
27334;BME280;14817;57.104;-2.094;2024-03-29T01:23:44;96532.38;;;5.96;100.00
27334;BME280;14817;57.104;-2.094;2024-03-29T01:26:10;96525.00;;;5.98;100.00
27334;BME280;14817;57.104;-2.094;2024-03-29T01:28:38;96531.69;;;6.00;100.00
27334;BME280;14817;57.104;-2.094;2024-03-29T01:31:05;96523.88;;;6.05;100.00
27334;BME280;14817;57.104;-2.094;2024-03-29T01:33:31;96526.53;;;6.05;100.00
27334;BME280;14817;57.104;-2.094;2024-03-29T01:36:07;96528.06;;;6.13;100.00
27334;BME280;14817;57.104;-2.094;2024-03-29T01:38:33;96526.44;;;6.12;100.00
27334;BME280;14817;57.104;-2.094;2024-03-29T01:40:59;96529.69;;;6.14;100.00
27334;BME280;14817;57.104;-2.094;2024-03-29T01:43:25;96531.91;;;5.99;100.00
27334;BME280;14817;57.104;-2.094;2024-03-29T01:45:54;96519.69;;;5.98;100.00
27334;BME280;14817;57.104;-2.094;2024-03-29T01:48:22;96526.44;;;6.12;100.00
27334;BME280;14817;57.104;-2.094;2024-03-29T01:50:49;96519.31;;;6.12;100.00
27334;BME280;14817;57.104;-2.094;2024-03-29T01:53:16;96510.59;;;6.05;100.00
27334;BME280;14817;57.104;-2.094;2024-03-29T01:55:44;96518.13;;;6.08;100.00
27334;BME280;14817;57.104;-2.094;2024-03-29T01:58:10;96512.94;;;6.13;100.00
27334;BME280;14817;57.104;-2.094;2024-03-29T02:00:39;96508.91;;;6.11;100.00
27334;BME280;14817;57.104;-2.094;2024-03-29T02:03:08;96507.22;;;6.17;100.00
27334;BME280;14817;57.104;-2.094;2024-03-29T02:05:42;96510.06;;;6.15;100.00
27334;BME280;14817;57.104;-2.094;2024-03-29T02:08:10;96503.13;;;6.14;100.00
27334;BME280;14817;57.104;-2.094;2024-03-29T02:10:36;96499.88;;;6.12;100.00
27334;BME280;14817;57.104;-2.094;2024-03-29T02:13:03;96506.53;;;6.03;100.00
27334;BME280;14817;57.104;-2.094;2024-03-29T02:15:30;96511.63;;;6.04;100.00
27334;BME280;14817;57.104;-2.094;2024-03-29T02:17:57;96511.03;;;6.02;100.00
27334;BME280;14817;57.104;-2.094;2024-03-29T02:20:23;96508.59;;;6.01;100.00
27334;BME280;14817;57.104;-2.094;2024-03-29T02:23:06;96507.13;;;6.05;100.00
27334;BME280;14817;57.104;-2.094;2024-03-29T02:25:32;96511.03;;;6.02;100.00
27334;BME280;14817;57.104;-2.094;2024-03-29T02:27:59;96516.19;;;5.97;100.00
27334;BME280;14817;57.104;-2.094;2024-03-29T02:30:26;96520.53;;;5.91;100.00
27334;BME280;14817;57.104;-2.094;2024-03-29T02:32:53;96510.81;;;5.85;100.00
27334;BME280;14817;57.104;-2.094;2024-03-29T02:35:18;96514.84;;;5.88;100.00
27334;BME280;14817;57.104;-2.094;2024-03-29T02:37:44;96517.72;;;5.86;100.00
27334;BME280;14817;57.104;-2.094;2024-03-29T02:40:10;96516.53;;;5.82;100.00
27334;BME280;14817;57.104;-2.094;2024-03-29T02:42:36;96517.44;;;5.76;100.00
27334;BME280;14817;57.104;-2.094;2024-03-29T02:45:03;96516.50;;;5.89;100.00
27334;BME280;14817;57.104;-2.094;2024-03-29T02:47:29;96520.38;;;5.86;100.00
27334;BME280;14817;57.104;-2.094;2024-03-29T02:49:55;96511.69;;;5.79;100.00
27334;BME280;14817;57.104;-2.094;2024-03-29T02:52:21;96511.59;;;5.86;100.00
27334;BME280;14817;57.104;-2.094;2024-03-29T02:54:47;96511.13;;;5.96;100.00
27334;BME280;14817;57.104;-2.094;2024-03-29T02:57:12;96511.13;;;5.96;100.00
27334;BME280;14817;57.104;-2.094;2024-03-29T02:59:42;96500.25;;;5.97;100.00
27334;BME280;14817;57.104;-2.094;2024-03-29T03:02:08;96501.69;;;6.00;100.00
27334;BME280;14817;57.104;-2.094;2024-03-29T03:04:34;96499.38;;;5.85;100.00
27334;BME280;14817;57.104;-2.094;2024-03-29T03:07:00;96493.34;;;5.96;100.00
27334;BME280;14817;57.104;-2.094;2024-03-29T03:09:51;96501.69;;;6.00;100.00
27334;BME280;14817;57.104;-2.094;2024-03-29T03:12:36;96488.41;;;6.00;100.00
27334;BME280;14817;57.104;-2.094;2024-03-29T03:15:02;96486.09;;;6.03;100.00
27334;BME280;14817;57.104;-2.094;2024-03-29T03:17:29;96491.06;;;6.00;100.00
27334;BME280;14817;57.104;-2.094;2024-03-29T03:19:55;96492.34;;;5.90;100.00
27334;BME280;14817;57.104;-2.094;2024-03-29T03:22:20;96494.41;;;5.88;100.00
27334;BME280;14817;57.104;-2.094;2024-03-29T03:24:46;96492.22;;;5.85;100.00
27334;BME280;14817;57.104;-2.094;2024-03-29T03:27:12;96489.69;;;5.90;100.00
27334;BME280;14817;57.104;-2.094;2024-03-29T03:29:39;96494.66;;;5.87;100.00
27334;BME280;14817;57.104;-2.094;2024-03-29T03:32:05;96491.16;;;5.86;100.00
27334;BME280;14817;57.104;-2.094;2024-03-29T03:34:32;96489.69;;;5.90;100.00
27334;BME280;14817;57.104;-2.094;2024-03-29T03:36:58;96495.75;;;5.79;100.00
27334;BME280;14817;57.104;-2.094;2024-03-29T03:39:24;96495.28;;;5.82;100.00
27334;BME280;14817;57.104;-2.094;2024-03-29T03:41:50;96487.13;;;5.84;100.00
27334;BME280;14817;57.104;-2.094;2024-03-29T03:44:16;96498.31;;;5.67;100.00
27334;BME280;14817;57.104;-2.094;2024-03-29T03:46:42;96495.16;;;5.77;100.00
27334;BME280;14817;57.104;-2.094;2024-03-29T03:49:08;96504.28;;;5.63;100.00
27334;BME280;14817;57.104;-2.094;2024-03-29T03:51:34;96504.06;;;5.64;100.00
27334;BME280;14817;57.104;-2.094;2024-03-29T03:53:59;96502.16;;;5.53;100.00
27334;BME280;14817;57.104;-2.094;2024-03-29T03:56:25;96510.47;;;5.38;100.00
27334;BME280;14817;57.104;-2.094;2024-03-29T03:58:51;96501.03;;;5.42;100.00
27334;BME280;14817;57.104;-2.094;2024-03-29T04:01:17;96503.63;;;5.49;100.00
27334;BME280;14817;57.104;-2.094;2024-03-29T04:03:43;96504.84;;;5.28;100.00
27334;BME280;14817;57.104;-2.094;2024-03-29T04:06:09;96509.94;;;5.48;100.00
27334;BME280;14817;57.104;-2.094;2024-03-29T04:08:35;96509.28;;;5.34;100.00
27334;BME280;14817;57.104;-2.094;2024-03-29T04:11:04;96500.19;;;5.42;100.00
27334;BME280;14817;57.104;-2.094;2024-03-29T04:13:30;96499.13;;;5.49;100.00
27334;BME280;14817;57.104;-2.094;2024-03-29T04:16:03;96504.72;;;5.41;100.00
27334;BME280;14817;57.104;-2.094;2024-03-29T04:18:29;96494.69;;;5.43;100.00
27334;BME280;14817;57.104;-2.094;2024-03-29T04:21:02;96497.47;;;5.30;100.00
27334;BME280;14817;57.104;-2.094;2024-03-29T04:23:28;96494.38;;;5.33;100.00
27334;BME280;14817;57.104;-2.094;2024-03-29T04:25:57;96489.66;;;5.35;100.00
27334;BME280;14817;57.104;-2.094;2024-03-29T04:28:23;96494.81;;;5.30;100.00
27334;BME280;14817;57.104;-2.094;2024-03-29T04:30:57;96495.41;;;5.32;100.00
27334;BME280;14817;57.104;-2.094;2024-03-29T04:33:24;96496.28;;;5.26;100.00
27334;BME280;14817;57.104;-2.094;2024-03-29T04:35:53;96497.09;;;5.26;100.00
27334;BME280;14817;57.104;-2.094;2024-03-29T04:38:19;96508.56;;;5.20;100.00
27334;BME280;14817;57.104;-2.094;2024-03-29T04:40:45;96503.66;;;5.24;100.00
27334;BME280;14817;57.104;-2.094;2024-03-29T04:43:11;96501.59;;;5.26;100.00
27334;BME280;14817;57.104;-2.094;2024-03-29T04:45:36;96503.72;;;5.17;100.00
27334;BME280;14817;57.104;-2.094;2024-03-29T04:48:02;96506.56;;;5.16;100.00
27334;BME280;14817;57.104;-2.094;2024-03-29T04:50:28;96510.63;;;5.18;100.00
27334;BME280;14817;57.104;-2.094;2024-03-29T04:52:54;96500.34;;;5.28;100.00
27334;BME280;14817;57.104;-2.094;2024-03-29T04:55:20;96508.50;;;5.27;100.00
27334;BME280;14817;57.104;-2.094;2024-03-29T04:57:45;96504.84;;;5.28;100.00
27334;BME280;14817;57.104;-2.094;2024-03-29T05:00:11;96512.31;;;5.38;100.00
27334;BME280;14817;57.104;-2.094;2024-03-29T05:02:37;96516.19;;;5.35;100.00
27334;BME280;14817;57.104;-2.094;2024-03-29T05:05:03;96509.41;;;5.21;100.00
27334;BME280;14817;57.104;-2.094;2024-03-29T05:07:30;96511.00;;;5.22;100.00
27334;BME280;14817;57.104;-2.094;2024-03-29T05:09:56;96512.69;;;5.16;100.00
27334;BME280;14817;57.104;-2.094;2024-03-29T05:12:22;96520.09;;;5.07;100.00
27334;BME280;14817;57.104;-2.094;2024-03-29T05:14:48;96512.59;;;5.04;100.00
27334;BME280;14817;57.104;-2.094;2024-03-29T05:17:15;96515.13;;;5.18;100.00
27334;BME280;14817;57.104;-2.094;2024-03-29T05:19:41;96508.16;;;5.23;100.00
27334;BME280;14817;57.104;-2.094;2024-03-29T05:22:07;96511.47;;;5.19;100.00
27334;BME280;14817;57.104;-2.094;2024-03-29T05:24:33;96513.88;;;5.20;100.00
27334;BME280;14817;57.104;-2.094;2024-03-29T05:26:58;96514.13;;;5.37;100.00
27334;BME280;14817;57.104;-2.094;2024-03-29T05:29:24;96511.88;;;5.41;100.00
27334;BME280;14817;57.104;-2.094;2024-03-29T05:31:50;96510.13;;;5.28;100.00
27334;BME280;14817;57.104;-2.094;2024-03-29T05:34:16;96508.84;;;5.12;100.00
27334;BME280;14817;57.104;-2.094;2024-03-29T05:36:42;96508.81;;;5.37;100.00
27334;BME280;14817;57.104;-2.094;2024-03-29T05:39:09;96513.00;;;5.26;100.00
27334;BME280;14817;57.104;-2.094;2024-03-29T05:41:35;96518.97;;;5.22;100.00
27334;BME280;14817;57.104;-2.094;2024-03-29T05:44:01;96525.72;;;5.18;100.00
27334;BME280;14817;57.104;-2.094;2024-03-29T05:46:27;96516.47;;;5.27;100.00
27334;BME280;14817;57.104;-2.094;2024-03-29T05:48:53;96527.06;;;5.27;100.00
27334;BME280;14817;57.104;-2.094;2024-03-29T05:51:18;96521.06;;;5.38;100.00
27334;BME280;14817;57.104;-2.094;2024-03-29T05:53:44;96527.72;;;5.47;100.00
27334;BME280;14817;57.104;-2.094;2024-03-29T05:56:10;96533.28;;;5.39;100.00
27334;BME280;14817;57.104;-2.094;2024-03-29T05:58:37;96529.31;;;5.30;100.00
27334;BME280;14817;57.104;-2.094;2024-03-29T06:01:03;96532.97;;;5.29;100.00
27334;BME280;14817;57.104;-2.094;2024-03-29T06:03:29;96540.63;;;5.19;100.00
27334;BME280;14817;57.104;-2.094;2024-03-29T06:05:55;96544.56;;;5.09;100.00
27334;BME280;14817;57.104;-2.094;2024-03-29T06:08:21;96541.66;;;5.18;100.00
27334;BME280;14817;57.104;-2.094;2024-03-29T06:10:49;96550.47;;;5.11;100.00
27334;BME280;14817;57.104;-2.094;2024-03-29T06:13:15;96543.88;;;5.21;100.00
27334;BME280;14817;57.104;-2.094;2024-03-29T06:15:55;96547.28;;;5.28;100.00
27334;BME280;14817;57.104;-2.094;2024-03-29T06:18:39;96547.94;;;5.23;100.00
27334;BME280;14817;57.104;-2.094;2024-03-29T06:21:05;96559.22;;;5.12;100.00
27334;BME280;14817;57.104;-2.094;2024-03-29T06:23:31;96557.16;;;5.21;100.00
27334;BME280;14817;57.104;-2.094;2024-03-29T06:25:56;96549.66;;;5.36;100.00
27334;BME280;14817;57.104;-2.094;2024-03-29T06:28:22;96546.41;;;5.34;100.00
27334;BME280;14817;57.104;-2.094;2024-03-29T06:30:48;96554.63;;;5.26;100.00
27334;BME280;14817;57.104;-2.094;2024-03-29T06:33:14;96561.72;;;5.32;100.00
27334;BME280;14817;57.104;-2.094;2024-03-29T06:35:40;96553.31;;;5.35;100.00
27334;BME280;14817;57.104;-2.094;2024-03-29T06:38:06;96565.69;;;5.23;100.00
27334;BME280;14817;57.104;-2.094;2024-03-29T06:40:32;96559.50;;;5.29;100.00
27334;BME280;14817;57.104;-2.094;2024-03-29T06:42:57;96557.97;;;5.40;100.00
27334;BME280;14817;57.104;-2.094;2024-03-29T06:45:25;96562.06;;;5.42;100.00
27334;BME280;14817;57.104;-2.094;2024-03-29T06:47:50;96559.47;;;5.36;100.00
27334;BME280;14817;57.104;-2.094;2024-03-29T06:50:18;96566.44;;;5.30;100.00
27334;BME280;14817;57.104;-2.094;2024-03-29T06:52:43;96557.63;;;5.36;100.00
27334;BME280;14817;57.104;-2.094;2024-03-29T06:55:09;96573.06;;;5.21;100.00
27334;BME280;14817;57.104;-2.094;2024-03-29T06:57:35;96560.69;;;5.33;100.00
27334;BME280;14817;57.104;-2.094;2024-03-29T07:00:02;96564.06;;;5.22;100.00
27334;BME280;14817;57.104;-2.094;2024-03-29T07:02:28;96571.16;;;5.28;100.00
27334;BME280;14817;57.104;-2.094;2024-03-29T07:04:54;96562.72;;;5.38;100.00
27334;BME280;14817;57.104;-2.094;2024-03-29T07:07:20;96566.31;;;5.43;100.00
27334;BME280;14817;57.104;-2.094;2024-03-29T07:09:46;96569.91;;;5.56;100.00
27334;BME280;14817;57.104;-2.094;2024-03-29T07:12:12;96596.84;;;5.52;100.00
27334;BME280;14817;57.104;-2.094;2024-03-29T07:14:38;96599.03;;;5.62;100.00
27334;BME280;14817;57.104;-2.094;2024-03-29T07:17:04;96597.59;;;5.85;100.00
27334;BME280;14817;57.104;-2.094;2024-03-29T07:19:29;96605.69;;;5.97;100.00
27334;BME280;14817;57.104;-2.094;2024-03-29T07:21:55;96618.19;;;5.89;100.00
27334;BME280;14817;57.104;-2.094;2024-03-29T07:24:21;96626.50;;;6.00;100.00
27334;BME280;14817;57.104;-2.094;2024-03-29T07:26:47;96631.56;;;6.01;100.00
27334;BME280;14817;57.104;-2.094;2024-03-29T07:29:13;96640.03;;;5.91;100.00
27334;BME280;14817;57.104;-2.094;2024-03-29T07:31:38;96641.84;;;5.98;100.00
27334;BME280;14817;57.104;-2.094;2024-03-29T07:34:04;96650.41;;;6.00;100.00
27334;BME280;14817;57.104;-2.094;2024-03-29T07:36:30;96653.28;;;5.98;100.00
27334;BME280;14817;57.104;-2.094;2024-03-29T07:39:01;96655.50;;;6.20;100.00
27334;BME280;14817;57.104;-2.094;2024-03-29T07:41:29;96650.41;;;6.18;100.00
27334;BME280;14817;57.104;-2.094;2024-03-29T07:43:56;96651.88;;;6.14;100.00
27334;BME280;14817;57.104;-2.094;2024-03-29T07:46:28;96655.19;;;6.09;100.00
27334;BME280;14817;57.104;-2.094;2024-03-29T07:48:56;96659.88;;;5.89;100.00
27334;BME280;14817;57.104;-2.094;2024-03-29T07:51:21;96660.69;;;6.15;100.00
27334;BME280;14817;57.104;-2.094;2024-03-29T07:53:47;96657.38;;;6.19;100.00
27334;BME280;14817;57.104;-2.094;2024-03-29T07:56:13;96659.69;;;6.09;100.00
27334;BME280;14817;57.104;-2.094;2024-03-29T07:58:39;96669.06;;;6.11;100.00
27334;BME280;14817;57.104;-2.094;2024-03-29T08:01:05;96669.13;;;6.05;100.00
27334;BME280;14817;57.104;-2.094;2024-03-29T08:03:32;96667.16;;;6.19;100.00
27334;BME280;14817;57.104;-2.094;2024-03-29T08:06:01;96661.78;;;6.44;100.00
27334;BME280;14817;57.104;-2.094;2024-03-29T08:08:34;96663.19;;;6.65;100.00
27334;BME280;14817;57.104;-2.094;2024-03-29T08:11:00;96661.28;;;6.53;100.00
27334;BME280;14817;57.104;-2.094;2024-03-29T08:13:27;96668.88;;;6.68;100.00
27334;BME280;14817;57.104;-2.094;2024-03-29T08:15:57;96681.41;;;6.61;100.00
27334;BME280;14817;57.104;-2.094;2024-03-29T08:18:24;96674.75;;;6.89;100.00
27334;BME280;14817;57.104;-2.094;2024-03-29T08:20:50;96676.19;;;7.22;100.00
27334;BME280;14817;57.104;-2.094;2024-03-29T08:23:16;96678.72;;;7.59;100.00
27334;BME280;14817;57.104;-2.094;2024-03-29T08:25:41;96689.63;;;7.69;100.00
27334;BME280;14817;57.104;-2.094;2024-03-29T08:28:07;96696.38;;;8.66;100.00
27334;BME280;14817;57.104;-2.094;2024-03-29T08:30:33;96705.25;;;9.35;100.00
27334;BME280;14817;57.104;-2.094;2024-03-29T08:33:03;96735.13;;;9.78;100.00
27334;BME280;14817;57.104;-2.094;2024-03-29T08:35:30;96740.75;;;10.44;100.00
27334;BME280;14817;57.104;-2.094;2024-03-29T08:37:56;96742.66;;;11.27;100.00
27334;BME280;14817;57.104;-2.094;2024-03-29T08:40:21;96749.69;;;11.11;100.00
27334;BME280;14817;57.104;-2.094;2024-03-29T08:42:48;96750.53;;;10.94;100.00
27334;BME280;14817;57.104;-2.094;2024-03-29T08:45:14;96739.53;;;11.13;100.00
27334;BME280;14817;57.104;-2.094;2024-03-29T08:47:40;96755.66;;;10.23;100.00
27334;BME280;14817;57.104;-2.094;2024-03-29T08:50:06;96753.97;;;9.43;100.00
27334;BME280;14817;57.104;-2.094;2024-03-29T08:52:31;96754.59;;;9.61;100.00
27334;BME280;14817;57.104;-2.094;2024-03-29T08:54:57;96762.75;;;9.84;100.00
27334;BME280;14817;57.104;-2.094;2024-03-29T08:57:23;96763.56;;;9.15;100.00
27334;BME280;14817;57.104;-2.094;2024-03-29T08:59:49;96771.84;;;9.13;100.00
27334;BME280;14817;57.104;-2.094;2024-03-29T09:02:15;96778.03;;;8.78;100.00
27334;BME280;14817;57.104;-2.094;2024-03-29T09:04:41;96777.09;;;8.61;100.00
27334;BME280;14817;57.104;-2.094;2024-03-29T09:07:06;96774.34;;;8.02;100.00
27334;BME280;14817;57.104;-2.094;2024-03-29T09:09:32;96779.97;;;8.24;100.00
27334;BME280;14817;57.104;-2.094;2024-03-29T09:11:58;96779.88;;;8.54;100.00
27334;BME280;14817;57.104;-2.094;2024-03-29T09:14:25;96786.28;;;8.00;100.00
27334;BME280;14817;57.104;-2.094;2024-03-29T09:16:51;96778.66;;;8.15;100.00
27334;BME280;14817;57.104;-2.094;2024-03-29T09:19:17;96782.41;;;8.37;100.00
27334;BME280;14817;57.104;-2.094;2024-03-29T09:21:43;96781.28;;;8.45;100.00
27334;BME280;14817;57.104;-2.094;2024-03-29T09:24:08;96786.84;;;8.44;100.00
27334;BME280;14817;57.104;-2.094;2024-03-29T09:26:34;96791.50;;;8.60;100.00
27334;BME280;14817;57.104;-2.094;2024-03-29T09:29:00;96796.06;;;8.29;100.00
27334;BME280;14817;57.104;-2.094;2024-03-29T09:31:26;96801.13;;;8.19;100.00
27334;BME280;14817;57.104;-2.094;2024-03-29T09:33:52;96802.19;;;8.30;100.00
27334;BME280;14817;57.104;-2.094;2024-03-29T09:36:23;96806.94;;;8.28;100.00
27334;BME280;14817;57.104;-2.094;2024-03-29T09:38:50;96807.41;;;8.25;100.00
27334;BME280;14817;57.104;-2.094;2024-03-29T09:41:18;96811.13;;;8.35;100.00
27334;BME280;14817;57.104;-2.094;2024-03-29T09:43:46;96817.63;;;8.39;100.00
27334;BME280;14817;57.104;-2.094;2024-03-29T09:46:13;96814.50;;;8.31;100.00
27334;BME280;14817;57.104;-2.094;2024-03-29T09:48:41;96811.06;;;8.42;100.00
27334;BME280;14817;57.104;-2.094;2024-03-29T09:51:08;96821.09;;;8.28;100.00
27334;BME280;14817;57.104;-2.094;2024-03-29T09:53:37;96821.28;;;8.45;100.00
27334;BME280;14817;57.104;-2.094;2024-03-29T09:56:04;96821.16;;;8.64;100.00
27334;BME280;14817;57.104;-2.094;2024-03-29T09:58:31;96827.19;;;8.59;100.00
27334;BME280;14817;57.104;-2.094;2024-03-29T10:00:57;96824.16;;;8.44;100.00
27334;BME280;14817;57.104;-2.094;2024-03-29T10:03:24;96820.69;;;8.55;100.00
27334;BME280;14817;57.104;-2.094;2024-03-29T10:05:56;96826.88;;;8.79;100.00
27334;BME280;14817;57.104;-2.094;2024-03-29T10:08:24;96832.06;;;8.97;100.00
27334;BME280;14817;57.104;-2.094;2024-03-29T10:10:51;96835.19;;;8.83;100.00
27334;BME280;14817;57.104;-2.094;2024-03-29T10:13:17;96844.13;;;8.76;100.00
27334;BME280;14817;57.104;-2.094;2024-03-29T10:15:43;96843.66;;;8.68;100.00
27334;BME280;14817;57.104;-2.094;2024-03-29T10:18:13;96844.72;;;8.90;100.00
27334;BME280;14817;57.104;-2.094;2024-03-29T10:20:38;96850.63;;;8.57;100.00
27334;BME280;14817;57.104;-2.094;2024-03-29T10:23:05;96844.13;;;8.53;100.00
27334;BME280;14817;57.104;-2.094;2024-03-29T10:25:33;96849.38;;;8.71;100.00
27334;BME280;14817;57.104;-2.094;2024-03-29T10:28:00;96850.16;;;8.60;100.00
27334;BME280;14817;57.104;-2.094;2024-03-29T10:30:29;96849.59;;;8.58;100.00
27334;BME280;14817;57.104;-2.094;2024-03-29T10:32:56;96848.31;;;8.72;100.00
27334;BME280;14817;57.104;-2.094;2024-03-29T10:35:24;96847.94;;;8.45;100.00
27334;BME280;14817;57.104;-2.094;2024-03-29T10:37:52;96847.72;;;8.58;100.00
27334;BME280;14817;57.104;-2.094;2024-03-29T10:40:21;96864.38;;;8.42;100.00
27334;BME280;14817;57.104;-2.094;2024-03-29T10:42:47;96865.03;;;8.37;100.00
27334;BME280;14817;57.104;-2.094;2024-03-29T10:45:14;96863.94;;;8.15;100.00
27334;BME280;14817;57.104;-2.094;2024-03-29T10:47:43;96868.75;;;8.36;100.00
27334;BME280;14817;57.104;-2.094;2024-03-29T10:50:11;96867.09;;;8.54;100.00
27334;BME280;14817;57.104;-2.094;2024-03-29T10:52:39;96864.03;;;8.38;100.00
27334;BME280;14817;57.104;-2.094;2024-03-29T10:55:08;96866.53;;;8.22;100.00
27334;BME280;14817;57.104;-2.094;2024-03-29T10:57:34;96861.72;;;8.42;100.00
27334;BME280;14817;57.104;-2.094;2024-03-29T11:00:12;96861.06;;;8.70;100.00
27334;BME280;14817;57.104;-2.094;2024-03-29T11:05:46;96878.38;;;9.03;100.00
27334;BME280;14817;57.104;-2.094;2024-03-29T11:08:15;96884.28;;;9.17;100.00
27334;BME280;14817;57.104;-2.094;2024-03-29T11:10:44;96885.56;;;9.14;100.00
27334;BME280;14817;57.104;-2.094;2024-03-29T11:13:37;96888.28;;;9.55;100.00
27334;BME280;14817;57.104;-2.094;2024-03-29T11:16:05;96882.94;;;9.95;100.00
27334;BME280;14817;57.104;-2.094;2024-03-29T11:18:31;96894.97;;;9.29;100.00
27334;BME280;14817;57.104;-2.094;2024-03-29T11:20:58;96889.38;;;9.94;100.00
27334;BME280;14817;57.104;-2.094;2024-03-29T11:23:26;96887.78;;;10.56;100.00
27334;BME280;14817;57.104;-2.094;2024-03-29T11:25:54;96900.47;;;10.60;100.00
27334;BME280;14817;57.104;-2.094;2024-03-29T11:28:31;96905.75;;;10.72;100.00
27334;BME280;14817;57.104;-2.094;2024-03-29T11:31:00;96904.84;;;10.67;100.00
27334;BME280;14817;57.104;-2.094;2024-03-29T11:33:27;96908.94;;;10.12;100.00
27334;BME280;14817;57.104;-2.094;2024-03-29T11:35:54;96903.13;;;10.44;100.00
27334;BME280;14817;57.104;-2.094;2024-03-29T11:38:20;96910.91;;;10.62;100.00
27334;BME280;14817;57.104;-2.094;2024-03-29T11:43:32;96919.03;;;10.67;100.00
27334;BME280;14817;57.104;-2.094;2024-03-29T11:45:59;96916.84;;;10.98;100.00
27334;BME280;14817;57.104;-2.094;2024-03-29T11:48:27;96925.28;;;10.90;100.00
27334;BME280;14817;57.104;-2.094;2024-03-29T11:50:54;96929.81;;;10.72;100.00
27334;BME280;14817;57.104;-2.094;2024-03-29T11:53:20;96923.31;;;10.51;100.00
27334;BME280;14817;57.104;-2.094;2024-03-29T11:55:47;96928.56;;;10.46;100.00
27334;BME280;14817;57.104;-2.094;2024-03-29T11:58:23;96933.34;;;10.44;100.00
27334;BME280;14817;57.104;-2.094;2024-03-29T12:00:53;96938.47;;;10.46;100.00
27334;BME280;14817;57.104;-2.094;2024-03-29T12:03:20;96940.03;;;10.30;100.00
27334;BME280;14817;57.104;-2.094;2024-03-29T12:05:49;96937.78;;;10.38;100.00
27334;BME280;14817;57.104;-2.094;2024-03-29T12:08:25;96938.22;;;10.07;100.00
27334;BME280;14817;57.104;-2.094;2024-03-29T12:10:52;96933.50;;;10.26;100.00
27334;BME280;14817;57.104;-2.094;2024-03-29T12:13:18;96928.25;;;10.42;100.00
27334;BME280;14817;57.104;-2.094;2024-03-29T12:15:44;96926.97;;;10.62;100.00
27334;BME280;14817;57.104;-2.094;2024-03-29T12:18:10;96931.75;;;10.60;100.00
27334;BME280;14817;57.104;-2.094;2024-03-29T12:20:40;96939.63;;;10.50;100.00
27334;BME280;14817;57.104;-2.094;2024-03-29T12:23:08;96927.88;;;10.68;100.00
27334;BME280;14817;57.104;-2.094;2024-03-29T12:25:37;96939.75;;;10.89;100.00
27334;BME280;14817;57.104;-2.094;2024-03-29T12:28:04;96943.53;;;10.76;100.00
27334;BME280;14817;57.104;-2.094;2024-03-29T12:30:30;96945.13;;;10.60;100.00
27334;BME280;14817;57.104;-2.094;2024-03-29T12:33:07;96940.09;;;10.47;100.00
27334;BME280;14817;57.104;-2.094;2024-03-29T12:35:33;96944.94;;;10.33;100.00
27334;BME280;14817;57.104;-2.094;2024-03-29T12:38:01;96944.13;;;10.20;100.00
27334;BME280;14817;57.104;-2.094;2024-03-29T12:40:30;96952.47;;;10.24;100.00
27334;BME280;14817;57.104;-2.094;2024-03-29T12:43:04;96952.00;;;10.27;100.00
27334;BME280;14817;57.104;-2.094;2024-03-29T12:45:31;96950.75;;;10.18;100.00
27334;BME280;14817;57.104;-2.094;2024-03-29T12:47:57;96951.91;;;10.22;100.00
27334;BME280;14817;57.104;-2.094;2024-03-29T12:50:27;96947.09;;;9.95;100.00
27334;BME280;14817;57.104;-2.094;2024-03-29T12:52:55;96934.84;;;9.71;100.00